Time;durP1;ratioP1;P1;durP2;ratioP2;P2;SDS_P1;SDS_P2;PMS_P1;PMS_P2;Temp;Humidity;BMP_temperature;BMP_pressure;BME280_temperature;BME280_humidity;BME280_pressure;Samples;Min_cycle;Max_cycle;Signal;HPM_P1;HPM_P2
2023/10/26 00:01:21;;;;;;;12.90;10.07;;;9.60;99.90;;;;;;5072833;28;20056;-74
2023/10/26 00:03:47;;;;;;;16.15;11.32;;;9.60;99.90;;;;;;5073728;28;20052;-74
2023/10/26 00:06:14;;;;;;;18.60;11.82;;;9.60;99.90;;;;;;5091949;28;20048;-74
2023/10/26 00:08:41;;;;;;;14.63;10.68;;;9.60;99.90;;;;;;5076775;28;20053;-74
2023/10/26 00:11:08;;;;;;;17.40;12.00;;;9.60;99.90;;;;;;5077122;28;20117;-73
2023/10/26 00:13:35;;;;;;;19.38;12.30;;;9.60;99.90;;;;;;5076948;28;20109;-73
2023/10/26 00:16:04;;;;;;;15.23;11.45;;;9.60;99.90;;;;;;5076875;28;20048;-73
2023/10/26 00:18:30;;;;;;;21.75;12.07;;;9.60;99.90;;;;;;5077132;28;20143;-74
2023/10/26 00:20:58;;;;;;;17.33;11.38;;;9.60;99.90;;;;;;5077248;28;20450;-74
2023/10/26 00:23:24;;;;;;;15.07;11.02;;;9.60;99.90;;;;;;5076375;28;20093;-73
2023/10/26 00:25:51;;;;;;;16.08;11.40;;;9.60;99.90;;;;;;5076891;28;20560;-73
2023/10/26 00:28:18;;;;;;;20.17;13.02;;;9.60;99.90;;;;;;5076876;28;20047;-74
2023/10/26 00:30:45;;;;;;;15.43;10.90;;;9.60;99.90;;;;;;5076418;28;20055;-74
2023/10/26 00:33:13;;;;;;;19.05;11.98;;;9.50;99.90;;;;;;5076814;28;20090;-74
2023/10/26 00:35:40;;;;;;;17.35;12.45;;;9.50;99.90;;;;;;5076690;28;20056;-74
2023/10/26 00:38:07;;;;;;;17.88;12.30;;;9.50;99.90;;;;;;5076094;28;20385;-74
2023/10/26 00:40:34;;;;;;;18.48;11.80;;;9.50;99.90;;;;;;5076832;28;20491;-73
2023/10/26 00:43:01;;;;;;;20.02;12.93;;;9.50;99.90;;;;;;5076907;28;20457;-73
2023/10/26 00:45:34;;;;;;;23.47;13.90;;;9.50;99.90;;;;;;5076339;28;20044;-73
2023/10/26 00:48:01;;;;;;;;;;;9.50;99.90;;;;;;5076982;28;20131;-74
2023/10/26 00:50:30;;;;;;;19.92;14.30;;;9.50;99.90;;;;;;5076263;28;20387;-74
2023/10/26 00:52:57;;;;;;;22.90;15.15;;;9.40;99.90;;;;;;5076670;28;20055;-73
2023/10/26 00:55:25;;;;;;;25.40;17.42;;;9.50;99.90;;;;;;5076664;28;20058;-74
2023/10/26 00:57:53;;;;;;;25.38;17.35;;;9.50;99.90;;;;;;5075847;28;20048;-75
2023/10/26 01:00:21;;;;;;;29.13;18.20;;;9.50;99.90;;;;;;5076434;28;20049;-74
2023/10/26 01:02:48;;;;;;;33.13;21.17;;;9.50;99.90;;;;;;5076180;28;20568;-73
2023/10/26 01:05:15;;;;;;;34.42;21.00;;;9.50;99.90;;;;;;5075746;28;20048;-74
2023/10/26 01:07:44;;;;;;;33.95;20.63;;;9.60;99.90;;;;;;5094152;28;20097;-74
2023/10/26 01:10:11;;;;;;;34.47;20.55;;;9.60;99.90;;;;;;5076522;28;20105;-73
2023/10/26 01:12:38;;;;;;;31.98;21.20;;;9.60;99.90;;;;;;5071539;28;20052;-74
2023/10/26 01:15:07;;;;;;;40.65;25.40;;;9.60;99.90;;;;;;5076018;28;20044;-73
2023/10/26 01:17:35;;;;;;;37.15;22.67;;;9.50;99.90;;;;;;5076067;28;20408;-73
2023/10/26 01:20:02;;;;;;;35.60;24.77;;;9.50;99.90;;;;;;5074563;28;20127;-74
2023/10/26 01:22:33;;;;;;;40.35;24.67;;;9.50;99.90;;;;;;5076007;28;20051;-73
2023/10/26 01:25:00;;;;;;;39.70;24.95;;;9.50;99.90;;;;;;5071662;28;20093;-74
2023/10/26 01:27:27;;;;;;;40.85;24.80;;;9.50;99.90;;;;;;5074896;28;20048;-75
2023/10/26 01:29:55;;;;;;;39.25;26.40;;;9.50;99.90;;;;;;5076146;28;20044;-75
2023/10/26 01:32:22;;;;;;;41.63;27.58;;;9.50;99.90;;;;;;5075091;28;20056;-74
2023/10/26 01:34:48;;;;;;;45.35;25.85;;;9.50;99.90;;;;;;5075790;28;20044;-74
2023/10/26 01:37:15;;;;;;;37.22;26.25;;;9.50;99.90;;;;;;5075374;28;20101;-74
2023/10/26 01:39:44;;;;;;;38.20;25.55;;;9.60;99.90;;;;;;5075125;28;20044;-74
2023/10/26 01:42:12;;;;;;;54.80;30.33;;;9.50;99.90;;;;;;5075734;28;20048;-74
2023/10/26 01:44:39;;;;;;;42.47;28.10;;;9.60;99.90;;;;;;5075285;28;20093;-73
2023/10/26 01:47:06;;;;;;;42.33;27.27;;;9.60;99.90;;;;;;5070902;28;20055;-73
2023/10/26 01:49:33;;;;;;;41.47;27.25;;;9.60;99.90;;;;;;5075523;28;20067;-74
2023/10/26 01:52:00;;;;;;;41.28;27.33;;;9.70;99.90;;;;;;5071165;28;20094;-73
2023/10/26 01:54:27;;;;;;;46.00;27.85;;;9.70;99.90;;;;;;5074598;28;20048;-72
2023/10/26 01:56:55;;;;;;;44.13;28.20;;;9.70;99.90;;;;;;5075542;28;20101;-74
2023/10/26 01:59:22;;;;;;;42.65;28.05;;;9.70;99.90;;;;;;5074957;28;20442;-73
2023/10/26 02:01:48;;;;;;;38.92;26.77;;;9.80;99.90;;;;;;5066990;28;20049;-73
2023/10/26 02:04:15;;;;;;;43.90;27.90;;;9.80;99.90;;;;;;5071678;28;20044;-73
2023/10/26 02:06:42;;;;;;;40.83;26.67;;;9.80;99.90;;;;;;5071665;28;20049;-73
2023/10/26 02:09:09;;;;;;;51.83;32.17;;;9.80;99.90;;;;;;5071376;28;20052;-72
2023/10/26 02:11:36;;;;;;;58.80;35.17;;;9.80;99.90;;;;;;5071791;28;20053;-73
2023/10/26 02:14:04;;;;;;;52.70;31.77;;;9.80;99.90;;;;;;5071530;28;20110;-73
2023/10/26 02:16:32;;;;;;;48.15;30.88;;;9.80;99.90;;;;;;5071256;28;20110;-72
2023/10/26 02:18:59;;;;;;;47.50;30.63;;;9.80;99.90;;;;;;5071296;28;20041;-72
2023/10/26 02:21:26;;;;;;;50.03;31.25;;;9.80;99.90;;;;;;5071422;28;20040;-72
2023/10/26 02:23:53;;;;;;;48.65;30.33;;;9.80;99.90;;;;;;5070950;28;20044;-72
2023/10/26 02:26:19;;;;;;;49.50;29.55;;;9.80;99.90;;;;;;5071489;28;20048;-75
2023/10/26 02:28:46;;;;;;;46.22;28.55;;;9.80;99.90;;;;;;5066825;28;20044;-74
2023/10/26 02:31:16;;;;;;;38.28;26.02;;;9.80;99.90;;;;;;5070543;28;20070;-74
2023/10/26 02:33:43;;;;;;;38.53;25.40;;;9.80;99.90;;;;;;5068042;28;20049;-73
2023/10/26 02:36:10;;;;;;;42.40;25.50;;;9.80;99.90;;;;;;5070811;28;20082;-74
2023/10/26 02:38:37;;;;;;;39.17;25.40;;;9.80;99.90;;;;;;5071143;28;20106;-75
2023/10/26 02:41:04;;;;;;;37.63;25.05;;;9.80;99.90;;;;;;5069718;28;20044;-75
2023/10/26 02:43:31;;;;;;;43.78;25.70;;;9.70;99.90;;;;;;5070724;28;20133;-74
2023/10/26 02:46:04;;;;;;;37.92;25.08;;;9.80;99.90;;;;;;5066888;28;20051;-74
2023/10/26 02:48:35;;;;;;;37.70;25.67;;;9.70;99.90;;;;;;5070781;28;20063;-75
2023/10/26 02:51:05;;;;;;;49.38;29.73;;;9.70;99.90;;;;;;5069069;28;20455;-75
2023/10/26 02:53:35;;;;;;;36.45;24.55;;;9.70;99.90;;;;;;5071091;28;20053;-75
2023/10/26 02:56:02;;;;;;;44.17;27.55;;;9.60;99.90;;;;;;5067724;28;20496;-74
2023/10/26 02:58:28;;;;;;;36.63;25.05;;;9.70;99.90;;;;;;5070315;28;20467;-76
2023/10/26 03:00:56;;;;;;;43.17;28.50;;;9.70;99.90;;;;;;5073951;28;20097;-74
2023/10/26 03:03:23;;;;;;;41.17;27.27;;;9.60;99.90;;;;;;5073970;28;20062;-74
2023/10/26 03:05:51;;;;;;;37.10;26.48;;;9.60;99.90;;;;;;5072687;28;20056;-74
2023/10/26 03:08:18;;;;;;;47.05;29.70;;;9.60;99.90;;;;;;5070037;28;20398;-72
2023/10/26 03:10:45;;;;;;;42.17;26.33;;;9.50;99.90;;;;;;5073799;28;20567;-73
2023/10/26 03:13:12;;;;;;;42.25;27.20;;;9.70;99.90;;;;;;5073911;28;20052;-74
2023/10/26 03:15:39;;;;;;;37.92;25.30;;;9.50;99.90;;;;;;5056729;28;20071;-74
2023/10/26 03:18:06;;;;;;;36.85;24.98;;;9.50;99.90;;;;;;5060341;28;20177;-74
2023/10/26 03:20:34;;;;;;;45.17;27.75;;;9.50;99.90;;;;;;5069396;28;20475;-73
2023/10/26 03:23:02;;;;;;;38.83;25.42;;;9.50;99.90;;;;;;5065400;28;20060;-73
2023/10/26 03:25:29;;;;;;;42.00;27.85;;;9.70;99.90;;;;;;5070498;28;20537;-74
2023/10/26 03:27:56;;;;;;;37.10;24.05;;;9.50;99.90;;;;;;5085216;28;20180;-73
2023/10/26 03:30:23;;;;;;;32.17;20.08;;;9.50;99.90;;;;;;5069295;28;20051;-72
2023/10/26 03:32:49;;;;;;;41.05;24.95;;;9.60;99.90;;;;;;5062213;28;20044;-72
2023/10/26 03:35:16;;;;;;;35.08;23.33;;;9.70;99.90;;;;;;5070327;28;20047;-71
2023/10/26 03:37:43;;;;;;;33.25;21.60;;;9.80;99.90;;;;;;5070021;28;20381;-71
2023/10/26 03:40:13;;;;;;;32.90;20.08;;;9.80;99.90;;;;;;5088385;28;20127;-72
2023/10/26 03:42:40;;;;;;;44.80;28.23;;;9.80;99.90;;;;;;5072093;28;20551;-71
2023/10/26 03:45:08;;;;;;;32.08;19.30;;;9.80;99.90;;;;;;5075174;28;20054;-72
2023/10/26 03:47:35;;;;;;;32.03;20.98;;;9.80;99.90;;;;;;5069055;28;20044;-72
2023/10/26 03:50:02;;;;;;;43.42;26.77;;;9.90;99.90;;;;;;5075327;28;20484;-72
2023/10/26 03:52:29;;;;;;;48.97;26.45;;;9.80;99.90;;;;;;5092597;28;20135;-72
2023/10/26 03:54:56;;;;;;;33.50;22.23;;;9.80;99.90;;;;;;5068864;28;20504;-71
2023/10/26 03:57:24;;;;;;;30.35;21.35;;;9.90;99.90;;;;;;5072532;28;20052;-72
2023/10/26 03:59:51;;;;;;;38.50;24.15;;;9.90;99.90;;;;;;5072593;28;20446;-73
2023/10/26 04:02:17;;;;;;;31.13;21.00;;;9.90;99.90;;;;;;5072377;28;20048;-72
2023/10/26 04:04:44;;;;;;;31.70;21.40;;;9.90;99.90;;;;;;5073234;28;20110;-72
2023/10/26 04:07:11;;;;;;;33.53;21.52;;;9.90;99.90;;;;;;5073373;28;20059;-72
2023/10/26 04:09:38;;;;;;;35.72;22.20;;;9.90;99.90;;;;;;5067250;28;20169;-71
2023/10/26 04:12:06;;;;;;;34.80;23.25;;;9.90;99.90;;;;;;5073395;28;20101;-72
2023/10/26 04:14:34;;;;;;;35.97;22.73;;;9.90;99.90;;;;;;5064548;28;20062;-71
2023/10/26 04:17:01;;;;;;;35.15;21.73;;;9.90;99.90;;;;;;5075528;28;20056;-72
2023/10/26 04:19:28;;;;;;;35.97;23.13;;;9.90;99.90;;;;;;5073696;28;20122;-71
2023/10/26 04:21:55;;;;;;;30.77;20.30;;;9.90;99.90;;;;;;5071350;28;20044;-72
2023/10/26 04:24:22;;;;;;;28.33;21.30;;;9.90;99.90;;;;;;5074185;28;20117;-71
2023/10/26 04:26:49;;;;;;;31.00;22.02;;;9.90;99.90;;;;;;5075483;28;20105;-71
2023/10/26 04:29:16;;;;;;;30.83;20.58;;;9.90;99.90;;;;;;5071752;28;20488;-72
2023/10/26 04:31:44;;;;;;;31.20;20.60;;;9.90;99.90;;;;;;5075856;28;20458;-72
2023/10/26 04:34:11;;;;;;;29.98;20.17;;;9.90;99.90;;;;;;5070887;28;20047;-72
2023/10/26 04:36:38;;;;;;;31.30;21.13;;;10.00;99.90;;;;;;5090361;28;20093;-71
2023/10/26 04:39:04;;;;;;;35.60;24.08;;;10.00;99.90;;;;;;5067830;28;20098;-73
2023/10/26 04:41:32;;;;;;;38.75;23.90;;;9.90;99.90;;;;;;5090598;28;20044;-72
2023/10/26 04:43:58;;;;;;;34.90;22.92;;;9.90;99.90;;;;;;5072021;28;20506;-73
2023/10/26 04:46:26;;;;;;;35.38;23.40;;;9.80;99.90;;;;;;5073325;28;20051;-72
2023/10/26 04:48:54;;;;;;;37.65;24.67;;;9.70;99.90;;;;;;5072128;28;20060;-73
2023/10/26 04:51:21;;;;;;;39.67;26.52;;;9.60;99.90;;;;;;5072868;28;20048;-72
2023/10/26 04:53:48;;;;;;;37.60;24.77;;;9.60;99.90;;;;;;5070433;28;20055;-71
2023/10/26 04:56:14;;;;;;;52.65;29.92;;;9.60;99.90;;;;;;5073052;28;20044;-71
2023/10/26 04:58:43;;;;;;;36.20;25.48;;;9.50;99.90;;;;;;5070358;28;20056;-71
2023/10/26 05:01:10;;;;;;;35.35;23.63;;;9.50;99.90;;;;;;5070522;28;20132;-71
2023/10/26 05:03:37;;;;;;;36.10;23.30;;;9.50;99.90;;;;;;5072762;28;20044;-71
2023/10/26 05:06:07;;;;;;;36.58;23.65;;;9.40;99.90;;;;;;5069631;28;20056;-73
2023/10/26 05:08:33;;;;;;;27.77;19.23;;;9.30;99.90;;;;;;5073617;28;20135;-70
2023/10/26 05:11:00;;;;;;;50.17;32.40;;;9.30;99.90;;;;;;5069746;28;20109;-73
2023/10/26 05:13:28;;;;;;;39.15;25.25;;;9.30;99.90;;;;;;5071710;28;20093;-75
2023/10/26 05:15:55;;;;;;;34.97;22.20;;;9.10;99.90;;;;;;5070621;28;20076;-74
2023/10/26 05:18:22;;;;;;;36.80;23.40;;;9.10;99.90;;;;;;5070822;28;20048;-74
2023/10/26 05:20:49;;;;;;;50.08;28.55;;;9.00;99.90;;;;;;5072116;28;20090;-74
2023/10/26 05:23:18;;;;;;;47.83;29.30;;;8.90;99.90;;;;;;5067877;28;20070;-74
2023/10/26 05:25:44;;;;;;;37.67;23.52;;;8.80;99.90;;;;;;5072104;28;20109;-75
2023/10/26 05:28:11;;;;;;;36.15;24.75;;;8.70;99.90;;;;;;5068332;28;20055;-73
2023/10/26 05:30:38;;;;;;;38.47;25.83;;;8.70;99.90;;;;;;5071923;28;20089;-74
2023/10/26 05:33:05;;;;;;;34.58;24.00;;;8.60;99.90;;;;;;5069490;28;20097;-73
2023/10/26 05:35:32;;;;;;;39.08;23.77;;;8.60;99.90;;;;;;5070800;28;20127;-73
2023/10/26 05:37:59;;;;;;;40.47;26.67;;;8.60;99.90;;;;;;5071193;28;20101;-72
2023/10/26 05:40:27;;;;;;;41.58;25.33;;;8.60;99.90;;;;;;5071482;28;20040;-72
2023/10/26 05:42:54;;;;;;;43.83;25.98;;;8.60;99.90;;;;;;5069403;28;20051;-72
2023/10/26 05:45:21;;;;;;;43.13;26.10;;;8.60;99.90;;;;;;5072264;28;20052;-72
2023/10/26 05:47:52;;;;;;;41.15;26.55;;;8.60;99.90;;;;;;5068520;28;20048;-72
2023/10/26 05:50:19;;;;;;;51.05;29.17;;;8.70;99.90;;;;;;5071342;28;20122;-72
2023/10/26 05:52:46;;;;;;;51.97;30.25;;;8.70;99.90;;;;;;5072679;28;20048;-72
2023/10/26 05:55:13;;;;;;;45.05;27.70;;;8.70;99.90;;;;;;5070220;28;20055;-72
2023/10/26 05:57:41;;;;;;;37.92;25.10;;;8.70;99.90;;;;;;5072992;28;20105;-72
2023/10/26 06:00:09;;;;;;;46.53;28.27;;;8.80;99.90;;;;;;5071332;28;20044;-73
2023/10/26 06:02:37;;;;;;;50.13;28.25;;;8.80;99.90;;;;;;5071815;28;20408;-74
2023/10/26 06:05:04;;;;;;;43.20;24.95;;;8.70;99.90;;;;;;5069180;28;20063;-73
2023/10/26 06:07:33;;;;;;;39.33;25.73;;;8.80;99.90;;;;;;5067565;28;20052;-73
2023/10/26 06:10:01;;;;;;;38.78;23.23;;;8.70;99.90;;;;;;5066392;28;20041;-74
2023/10/26 06:12:28;;;;;;;41.33;25.88;;;8.70;99.90;;;;;;5071647;28;20055;-75
2023/10/26 06:14:56;;;;;;;38.35;24.80;;;8.70;99.90;;;;;;5069626;28;20048;-76
2023/10/26 06:17:23;;;;;;;41.85;24.60;;;8.60;99.90;;;;;;5070616;28;20048;-74
2023/10/26 06:19:50;;;;;;;70.78;36.92;;;8.50;99.90;;;;;;5071737;28;20500;-74
2023/10/26 06:22:17;;;;;;;39.63;25.00;;;8.50;99.90;;;;;;5070936;28;20462;-72
2023/10/26 06:24:44;;;;;;;35.17;22.20;;;8.40;99.90;;;;;;5088748;28;20546;-72
2023/10/26 06:27:11;;;;;;;55.17;31.60;;;8.40;99.90;;;;;;5071944;28;20134;-72
2023/10/26 06:29:38;;;;;;;35.17;23.02;;;8.30;99.90;;;;;;5072854;28;20063;-72
2023/10/26 06:32:06;;;;;;;55.92;31.67;;;8.30;99.90;;;;;;5073336;28;20519;-72
2023/10/26 06:34:33;;;;;;;56.78;31.98;;;8.30;99.90;;;;;;5073518;28;20051;-72
2023/10/26 06:37:00;;;;;;;74.28;33.30;;;8.30;99.90;;;;;;5073843;28;20052;-72
2023/10/26 06:39:27;;;;;;;80.47;32.38;;;8.30;99.90;;;;;;5074430;28;20121;-72
2023/10/26 06:41:56;;;;;;;74.72;31.98;;;8.40;99.90;;;;;;5072723;28;20124;-72
2023/10/26 06:44:22;;;;;;;72.88;32.15;;;8.40;99.90;;;;;;5074087;28;20059;-72
2023/10/26 06:46:49;;;;;;;48.15;26.75;;;8.50;99.90;;;;;;5069359;28;20051;-72
2023/10/26 06:49:18;;;;;;;57.58;27.45;;;8.50;99.90;;;;;;5073775;28;20098;-71
2023/10/26 06:51:44;;;;;;;80.57;36.15;;;8.60;99.90;;;;;;5073868;28;20048;-72
2023/10/26 06:54:11;;;;;;;78.97;33.20;;;8.60;99.90;;;;;;5074027;28;20059;-72
2023/10/26 06:56:38;;;;;;;104.13;38.33;;;8.70;99.90;;;;;;5073722;28;20388;-73
2023/10/26 06:59:05;;;;;;;100.60;35.70;;;8.70;99.90;;;;;;5073896;28;20039;-72
2023/10/26 07:01:33;;;;;;;117.57;41.13;;;8.80;99.90;;;;;;5072371;28;20079;-73
2023/10/26 07:04:01;;;;;;;143.13;44.17;;;8.90;99.90;;;;;;5073203;28;20388;-73
2023/10/26 07:06:32;;;;;;;134.98;44.75;;;9.00;99.90;;;;;;5072286;28;20436;-71
2023/10/26 07:08:59;;;;;;;141.77;42.53;;;9.00;99.90;;;;;;5073846;28;20554;-72
2023/10/26 07:11:25;;;;;;;95.63;37.80;;;9.10;99.90;;;;;;5073495;28;20036;-72
2023/10/26 07:13:52;;;;;;;87.95;34.90;;;9.10;99.90;;;;;;5074064;28;20048;-72
2023/10/26 07:16:19;;;;;;;174.70;49.55;;;9.20;99.90;;;;;;5071738;28;20056;-73
2023/10/26 07:18:46;;;;;;;121.25;40.13;;;9.20;99.90;;;;;;5073575;28;20105;-73
2023/10/26 07:21:13;;;;;;;190.13;48.88;;;9.30;99.90;;;;;;5073954;28;20048;-73
2023/10/26 07:23:41;;;;;;;147.60;47.30;;;9.30;99.90;;;;;;5074271;28;20047;-71
2023/10/26 07:26:08;;;;;;;149.30;46.08;;;9.50;99.90;;;;;;5071309;28;20414;-73
2023/10/26 07:28:35;;;;;;;124.63;45.63;;;9.50;99.90;;;;;;5074124;28;20055;-73
2023/10/26 07:31:01;;;;;;;71.63;33.83;;;9.50;99.90;;;;;;5074033;28;20040;-72
2023/10/26 07:33:28;;;;;;;45.78;27.52;;;9.70;99.90;;;;;;5070791;28;20040;-72
2023/10/26 07:35:57;;;;;;;61.90;31.55;;;9.70;99.90;;;;;;5072651;28;20055;-72
2023/10/26 07:38:25;;;;;;;54.33;29.35;;;9.80;99.90;;;;;;5087166;28;20047;-72
2023/10/26 07:40:56;;;;;;;43.53;26.35;;;9.90;99.90;;;;;;5073710;28;20446;-72
2023/10/26 07:43:23;;;;;;;54.42;29.02;;;10.00;99.90;;;;;;5069609;28;20053;-72
2023/10/26 07:45:51;;;;;;;39.17;24.48;;;10.10;99.90;;;;;;5072869;28;20067;-73
2023/10/26 07:48:18;;;;;;;42.28;25.70;;;10.10;99.90;;;;;;5073867;28;20052;-73
2023/10/26 07:50:45;;;;;;;36.03;23.20;;;10.10;99.90;;;;;;5073808;28;20142;-72
2023/10/26 07:53:12;;;;;;;37.17;22.67;;;10.10;99.90;;;;;;5073499;28;20055;-72
2023/10/26 07:55:39;;;;;;;42.38;24.02;;;10.10;99.90;;;;;;5073322;28;20040;-73
2023/10/26 07:58:07;;;;;;;39.45;21.83;;;10.10;99.90;;;;;;5073887;28;20044;-72
2023/10/26 08:00:37;;;;;;;34.80;21.67;;;10.10;99.90;;;;;;5072865;28;20056;-72
2023/10/26 08:03:05;;;;;;;36.40;22.10;;;10.10;99.90;;;;;;5073544;28;20132;-72
2023/10/26 08:05:35;;;;;;;38.03;23.67;;;10.10;99.90;;;;;;5069723;28;20048;-72
2023/10/26 08:08:02;;;;;;;39.30;23.20;;;10.10;99.90;;;;;;5073147;28;20048;-72
2023/10/26 08:10:35;;;;;;;36.58;22.13;;;10.10;99.90;;;;;;5073515;28;20048;-73
2023/10/26 08:13:03;;;;;;;35.80;21.77;;;10.10;99.90;;;;;;5073537;28;20044;-72
2023/10/26 08:15:32;;;;;;;33.17;21.88;;;10.10;99.90;;;;;;5072824;28;20066;-72
2023/10/26 08:17:59;;;;;;;43.78;25.27;;;10.10;99.90;;;;;;5073724;28;20075;-72
2023/10/26 08:20:26;;;;;;;34.15;20.98;;;10.10;99.90;;;;;;5089415;28;20048;-72
2023/10/26 08:22:53;;;;;;;35.90;22.05;;;10.20;99.90;;;;;;5073448;28;20097;-72
2023/10/26 08:25:20;;;;;;;33.88;20.85;;;10.20;99.90;;;;;;5073319;28;20052;-73
2023/10/26 08:27:47;;;;;;;34.10;19.92;;;10.10;99.90;;;;;;5073852;28;20054;-73
2023/10/26 08:30:15;;;;;;;29.13;19.80;;;10.10;99.90;;;;;;5094957;28;20181;-73
2023/10/26 08:32:43;;;;;;;29.42;19.67;;;10.10;99.90;;;;;;5077104;28;20079;-73
2023/10/26 08:35:10;;;;;;;30.30;19.85;;;10.20;99.90;;;;;;5076205;28;20507;-73
2023/10/26 08:37:37;;;;;;;35.63;20.38;;;10.20;99.90;;;;;;5076849;28;20131;-72
2023/10/26 08:40:11;;;;;;;29.40;19.08;;;10.20;99.90;;;;;;5076936;28;20052;-73
2023/10/26 08:42:39;;;;;;;29.75;19.58;;;10.20;99.90;;;;;;5075550;28;20044;-73
2023/10/26 08:45:12;;;;;;;32.17;19.20;;;10.30;99.90;;;;;;5076676;28;20051;-72
2023/10/26 08:47:39;;;;;;;32.85;19.35;;;10.30;99.90;;;;;;5076653;28;20511;-73
2023/10/26 08:50:11;;;;;;;30.05;19.45;;;10.40;99.90;;;;;;5076160;28;20055;-73
2023/10/26 08:52:38;;;;;;;27.30;18.35;;;10.40;99.90;;;;;;5076604;28;20056;-72
2023/10/26 08:55:06;;;;;;;26.27;16.58;;;10.40;99.90;;;;;;5076556;28;20074;-72
2023/10/26 08:57:34;;;;;;;26.33;17.15;;;10.50;99.90;;;;;;5075624;28;20565;-72
2023/10/26 09:00:06;;;;;;;28.10;16.13;;;10.40;99.90;;;;;;5076538;28;20059;-72
2023/10/26 09:02:35;;;;;;;23.30;16.13;;;10.50;99.90;;;;;;5094174;28;20047;-72
2023/10/26 09:05:03;;;;;;;27.63;16.80;;;10.50;99.90;;;;;;5076292;28;20075;-72
2023/10/26 09:07:32;;;;;;;25.67;16.98;;;10.60;99.90;;;;;;5076370;28;20088;-72
2023/10/26 09:09:59;;;;;;;24.70;16.98;;;10.70;99.90;;;;;;5089375;28;20070;-71
2023/10/26 09:12:26;;;;;;;22.67;15.55;;;11.20;99.90;;;;;;5075824;28;20496;-72
2023/10/26 09:14:59;;;;;;;24.45;15.65;;;10.80;99.90;;;;;;5076371;28;20059;-73
2023/10/26 09:17:29;;;;;;;21.15;14.82;;;10.70;99.90;;;;;;5075437;28;20040;-71
2023/10/26 09:19:57;;;;;;;21.85;14.88;;;10.80;99.90;;;;;;5076128;28;20389;-71
2023/10/26 09:22:37;;;;;;;23.50;16.10;;;10.70;99.90;;;;;;5075745;28;20047;-71
2023/10/26 09:25:08;;;;;;;21.30;15.18;;;10.70;99.90;;;;;;5075345;28;20130;-72
2023/10/26 09:27:35;;;;;;;24.17;14.90;;;10.70;99.90;;;;;;5075670;28;20048;-72
2023/10/26 09:30:03;;;;;;;23.27;15.98;;;10.70;99.90;;;;;;5074283;28;20048;-72
2023/10/26 09:32:38;;;;;;;22.30;15.75;;;10.70;99.90;;;;;;5070425;28;20043;-73
2023/10/26 09:35:06;;;;;;;25.27;15.52;;;10.70;99.90;;;;;;5090130;28;20080;-73
2023/10/26 09:37:51;;;;;;;24.55;16.13;;;10.70;99.90;;;;;;5050408;28;20099;-72
2023/10/26 09:40:20;;;;;;;21.80;15.15;;;10.70;99.90;;;;;;5069896;28;20487;-72
2023/10/26 09:42:48;;;;;;;24.60;16.40;;;10.70;99.90;;;;;;5072552;28;20123;-72
2023/10/26 09:45:15;;;;;;;22.73;15.75;;;10.70;99.90;;;;;;5073315;28;20055;-71
2023/10/26 09:47:42;;;;;;;23.25;16.48;;;10.70;99.90;;;;;;5067984;28;20470;-72
2023/10/26 09:50:10;;;;;;;23.25;16.13;;;10.80;99.90;;;;;;5069124;28;20097;-72
2023/10/26 09:52:38;;;;;;;26.17;15.88;;;10.80;99.90;;;;;;5069961;28;20048;-71
2023/10/26 09:55:10;;;;;;;23.20;15.40;;;10.90;99.90;;;;;;5074575;28;20474;-73
2023/10/26 09:57:43;;;;;;;24.25;16.23;;;10.90;99.90;;;;;;5071183;28;20062;-72
2023/10/26 10:00:13;;;;;;;27.75;17.70;;;10.90;99.90;;;;;;5070292;28;20104;-71
2023/10/26 10:02:40;;;;;;;25.20;16.08;;;11.00;99.90;;;;;;5072104;28;20044;-72
2023/10/26 10:05:07;;;;;;;22.48;15.35;;;11.00;99.90;;;;;;5073168;28;20062;-72
2023/10/26 10:07:45;;;;;;;23.70;16.05;;;11.10;99.90;;;;;;5070390;28;20496;-73
2023/10/26 10:10:15;;;;;;;22.27;14.95;;;11.10;99.90;;;;;;5086424;28;20048;-72
2023/10/26 10:12:42;;;;;;;24.38;15.65;;;11.30;99.90;;;;;;5089615;28;20048;-73
2023/10/26 10:15:11;;;;;;;21.70;15.48;;;11.50;99.90;;;;;;5068633;28;20503;-72
2023/10/26 10:18:12;;;;;;;20.65;15.32;;;11.50;99.90;;;;;;5070098;28;20134;-73
2023/10/26 10:20:41;;;;;;;20.00;15.23;;;11.60;99.90;;;;;;5069317;28;20123;-73
2023/10/26 10:23:08;;;;;;;26.17;15.82;;;11.60;99.90;;;;;;5072981;28;20071;-73
2023/10/26 10:25:59;;;;;;;22.20;15.18;;;11.70;99.90;;;;;;5072108;28;20473;-73
2023/10/26 10:28:48;;;;;;;23.17;16.27;;;11.60;99.90;;;;;;5066643;28;20044;-73
2023/10/26 10:31:37;;;;;;;22.92;16.05;;;11.60;99.90;;;;;;5070966;28;20794;-72
2023/10/26 10:34:05;;;;;;;26.63;17.50;;;11.70;99.90;;;;;;5064189;28;20100;-72
2023/10/26 10:37:06;;;;;;;26.70;16.95;;;11.70;99.90;;;;;;5065303;28;20044;-73
2023/10/26 10:39:33;;;;;;;23.75;16.90;;;11.80;99.90;;;;;;5068019;28;20040;-74
2023/10/26 10:42:04;;;;;;;22.73;16.27;;;11.80;99.90;;;;;;5065176;28;20052;-73
2023/10/26 10:44:35;;;;;;;;;;;11.90;99.90;;;;;;5071451;28;20083;-73
2023/10/26 10:47:02;;;;;;;22.67;15.95;;;11.70;99.90;;;;;;5071111;28;19985;-73
2023/10/26 10:49:29;;;;;;;21.90;15.32;;;11.70;99.90;;;;;;5071885;28;20116;-73
2023/10/26 10:51:57;;;;;;;23.15;16.20;;;11.80;99.90;;;;;;5070132;28;20066;-74
2023/10/26 10:54:23;;;;;;;28.33;16.63;;;11.90;99.90;;;;;;5089580;28;20126;-74
2023/10/26 10:56:50;;;;;;;24.17;16.42;;;11.80;99.90;;;;;;5070861;28;20052;-74
2023/10/26 10:59:20;;;;;;;29.00;18.30;;;11.80;99.90;;;;;;5071108;28;20060;-73
2023/10/26 11:01:47;;;;;;;25.73;16.50;;;11.80;99.90;;;;;;5088082;28;20051;-73
2023/10/26 11:04:14;;;;;;;25.42;17.92;;;11.70;99.90;;;;;;5072695;28;20376;-73
2023/10/26 11:06:49;;;;;;;24.77;16.85;;;11.70;99.90;;;;;;5069841;28;20125;-74
2023/10/26 11:09:23;;;;;;;32.30;18.98;;;11.70;99.90;;;;;;5088593;28;20079;-72
2023/10/26 11:11:50;;;;;;;31.05;20.10;;;11.80;99.90;;;;;;5070449;28;20044;-73
2023/10/26 11:14:18;;;;;;;31.40;19.08;;;11.70;99.90;;;;;;5069858;28;20056;-73
2023/10/26 11:16:46;;;;;;;30.27;18.55;;;11.70;99.90;;;;;;5067627;28;20048;-72
2023/10/26 11:19:13;;;;;;;31.77;20.58;;;11.70;99.90;;;;;;5066611;28;20841;-73
2023/10/26 11:21:40;;;;;;;33.00;20.48;;;11.70;99.90;;;;;;5069339;28;20085;-73
2023/10/26 11:24:08;;;;;;;26.42;18.33;;;11.70;99.90;;;;;;5066803;28;20075;-72
2023/10/26 11:26:35;;;;;;;26.48;18.13;;;11.70;99.90;;;;;;5067925;28;20093;-73
2023/10/26 11:29:04;;;;;;;26.30;19.02;;;11.70;99.90;;;;;;5070816;28;20070;-72
2023/10/26 11:31:42;;;;;;;33.67;20.95;;;11.80;99.90;;;;;;5067712;28;20040;-73
2023/10/26 11:34:11;;;;;;;37.05;20.95;;;11.90;99.90;;;;;;5069936;28;20095;-73
2023/10/26 11:36:38;;;;;;;30.42;19.65;;;11.90;99.90;;;;;;5071342;28;20478;-73
2023/10/26 11:39:06;;;;;;;28.10;18.42;;;11.90;99.90;;;;;;5066680;28;20068;-73
2023/10/26 11:41:36;;;;;;;28.98;19.65;;;12.00;99.90;;;;;;5070421;28;20130;-72
2023/10/26 11:44:05;;;;;;;28.05;19.02;;;12.10;99.90;;;;;;5070864;28;20055;-73
2023/10/26 11:46:34;;;;;;;29.15;18.23;;;12.20;99.90;;;;;;5089520;28;20067;-73
2023/10/26 11:49:03;;;;;;;29.08;18.55;;;12.20;99.90;;;;;;5068420;28;20163;-72
2023/10/26 11:51:33;;;;;;;27.23;18.50;;;12.30;99.90;;;;;;5071649;28;20043;-72
2023/10/26 11:54:11;;;;;;;26.63;18.50;;;12.30;99.90;;;;;;5070788;28;20050;-73
2023/10/26 11:56:38;;;;;;;29.00;20.25;;;12.30;99.90;;;;;;5069087;28;20495;-74
2023/10/26 11:59:05;;;;;;;28.02;19.33;;;12.30;99.90;;;;;;5069844;28;20388;-73
2023/10/26 12:01:35;;;;;;;25.48;18.95;;;12.30;99.90;;;;;;5064578;28;20076;-73
2023/10/26 12:04:01;;;;;;;26.52;16.75;;;12.50;99.90;;;;;;5070942;28;20056;-73
2023/10/26 12:06:30;;;;;;;28.98;18.13;;;12.50;99.90;;;;;;5073152;28;20109;-73
2023/10/26 12:08:58;;;;;;;25.27;17.27;;;12.50;99.90;;;;;;5073631;28;20052;-73
2023/10/26 12:11:25;;;;;;;24.38;16.40;;;12.50;99.90;;;;;;5071977;28;20056;-73
2023/10/26 12:13:52;;;;;;;26.73;17.60;;;12.50;99.90;;;;;;5074206;28;20059;-74
2023/10/26 12:16:19;;;;;;;28.85;18.20;;;12.50;99.90;;;;;;5071181;28;20546;-73
2023/10/26 12:18:46;;;;;;;27.50;18.50;;;12.40;99.90;;;;;;5075018;28;20193;-73
2023/10/26 12:21:13;;;;;;;29.88;18.30;;;12.40;99.90;;;;;;5071045;28;20052;-74
2023/10/26 12:23:40;;;;;;;27.42;18.75;;;12.30;99.90;;;;;;5074453;28;20109;-74
2023/10/26 12:26:08;;;;;;;30.92;21.33;;;12.30;99.90;;;;;;5070149;28;20044;-74
2023/10/26 12:28:35;;;;;;;33.00;21.23;;;12.30;99.90;;;;;;5071575;28;20098;-73
2023/10/26 12:31:02;;;;;;;35.65;22.00;;;12.20;99.90;;;;;;5073841;28;20048;-73
2023/10/26 12:33:29;;;;;;;31.60;20.42;;;12.20;99.90;;;;;;5072453;28;20055;-72
2023/10/26 12:35:56;;;;;;;34.33;20.85;;;12.20;99.90;;;;;;5070798;28;20048;-73
2023/10/26 12:38:23;;;;;;;32.08;19.67;;;12.20;99.90;;;;;;5068546;28;20048;-73